Aviation Digital Data Service (ADDS)

Output produced by TAFs form (0532 UTC 20 September 2017)
found at http://www.aviationweather.gov/adds/tafs/
 
TAF KRIV 200401Z 2004/2110 30006KT 9999 SKC QNH2988INS 
     BECMG 2006/2007 VRB04KT 9000 BR BKN009 QNH2990INS 
     BECMG 2014/2015 VRB04KT 9999 NSW BKN012 QNH2992INS 
     BECMG 2016/2017 31006KT 9999 SCT009 QNH2994INS 
     BECMG 2018/2019 31009KT 9999 SKC QNH2988INS 
     BECMG 2105/2106 VRB05KT 9999 OVC015 QNH2991INS TX26/2022Z TN15/2014Z